Airfield :
LOGIN :

Register | Disclaimer

   EN    FR    IT 

 










Legend :    VFR   Marginal VFR   IFR   Intensive IFR   Very Intensive IFR
Visi :
Ceiling :
>= 8 km
>= 3000ft
5 to 8 km
1000 to 3000 ft
1500m to 5 km
500 to 1000 ft
800 to 1500m
200 to 500 ft
< 800m
< 200 ft
Symbols :   Thunderstorms  Fog  Heavy snow  Heavy precipitations  Wind > 20 kt
SIGMETs :     Misc.  Thunderstorms  Icing  Turbulence  Mountain Waves  Volcanic Ashes







- Airport Elevation : 267 ft


EGDR - Culdrose Navy

CURRENT METAR :
  • 171250Z 24009KT 9999 FEW012 BKN200 20/14 Q1015 TEMPO 6000 -SHRA SCT018TCU RMK BLU TEMPO WHT

EXPIRED METARs :
  • 171220Z 24010KT 9999 FEW012 SCT160 BKN200 19/14 Q1015 TEMPO 6000 -SHRA SCT018TCU RMK BLU TEMPO WHT
  • 171150Z 24008KT 9999 FEW012 BKN200 18/13 Q1016 TEMPO 6000 -SHRA SCT018TCU RMK BLU TEMPO WHT
  • 171129Z 24009KT 9999 FEW012 SCT160 BKN200 18/14 Q1016 BLU TEMPO 6000 -SHRA SCT018TCU RMK WHT TEMPO WHT
  • 171050Z 22009KT 9999 FEW012 SCT250 BKN300 19/14 Q1016 TEMPO 6000 -SHRA SCT018TCU RMK BLU TEMPO WHT
  • 171021Z 22008KT 9999 FEW012 SCT018 18/14 Q1016 TEMPO 6000 -SHRA SCT018TCU RMK WHT TEMPO WHT

TAF TAF EGDR
Valid from the 17 at 12:00 until the 17 at 21:00 UTC


171038Z 1712/1721 22010KT 9999 FEW012
TEMPO 1712/1717 SCT018
TEMPO 1712/1716 6000 SHRA BKN018TCU
PROB30
TEMPO 1713/1716 3000 +SHRA SCT012 BKN050CB
BECMG 1717/1719 BKN008 OVC015
BECMG 1719/1721 0400 DZ FG BKN000 OVC002
No reported NOTAMs for that airfield.



MET'MAP, your aeronautical weather chart ! - Copyright ORBIFLY December 2007 - Disclaimer

ORBIFLY MET'MAP TEAM :

Programming & Development : Alexandra Zaïnal
Concept & Development : Baudouin d'Aumeries
Co-Development & Prog : Marc-Olivier Méhu
Technical & hardware support : Manuel Goepfert

Contact : metmap@orbifly.com




SOURCES & CREDITS :

   NOAA